Time;durP1;ratioP1;P1;durP2;ratioP2;P2;SDS_P1;SDS_P2;PMS_P1;PMS_P2;Temp;Humidity;BMP_temperature;BMP_pressure;BME280_temperature;BME280_humidity;BME280_pressure;Samples;Min_cycle;Max_cycle;Signal;HPM_P1;HPM_P2
2022/08/18 00:01:14;;;;;;;74.05;52.65;;;;;;;18.92;91.11;101140.09;5155576;27;20840;-74
2022/08/18 00:03:46;;;;;;;71.07;52.20;;;;;;;18.96;91.21;101145.28;5155390;27;20118;-73
2022/08/18 00:06:27;;;;;;;67.50;50.65;;;;;;;18.97;90.71;101145.19;5155083;27;20040;-73
2022/08/18 00:09:03;;;;;;;71.63;52.38;;;;;;;18.94;90.60;101142.69;5154884;27;20519;-73
2022/08/18 00:11:39;;;;;;;70.65;52.63;;;;;;;18.96;90.79;101150.63;5155246;27;20052;-73
2022/08/18 00:14:19;;;;;;;68.35;50.55;;;;;;;18.98;90.83;101144.22;5156322;27;20036;-73
2022/08/18 00:16:52;;;;;;;69.28;50.58;;;;;;;18.98;90.80;101149.56;5157802;27;20515;-73
2022/08/18 00:19:22;;;;;;;74.43;51.67;;;;;;;19.03;91.10;101159.97;5158301;27;20039;-73
2022/08/18 00:22:12;;;;;;;66.13;50.28;;;;;;;19.06;90.93;101159.81;5158472;27;20133;-73
2022/08/18 00:24:48;;;;;;;66.03;51.58;;;;;;;19.09;91.12;101159.59;5158117;27;20114;-73
2022/08/18 00:27:22;;;;;;;65.78;48.30;;;;;;;19.11;90.67;101146.16;5158674;27;20170;-73
2022/08/18 00:29:59;;;;;;;66.82;51.08;;;;;;;19.09;90.87;101151.56;5158185;27;20036;-73
2022/08/18 00:32:32;;;;;;;65.10;49.95;;;;;;;19.09;90.62;101154.25;5157497;27;20103;-73
2022/08/18 00:35:20;;;;;;;65.60;49.45;;;;;;;19.09;90.54;101163.13;5158196;27;20083;-73
2022/08/18 00:37:48;;;;;;;65.88;48.65;;;;;;;19.08;90.37;101168.56;5158180;27;20568;-73
2022/08/18 00:40:20;;;;;;;63.25;45.65;;;;;;;19.06;90.34;101160.66;5157645;27;20039;-73
2022/08/18 00:42:56;;;;;;;71.43;51.90;;;;;;;19.06;90.22;101157.97;5157981;27;20046;-73
2022/08/18 00:45:35;;;;;;;70.40;51.92;;;;;;;19.06;90.41;101165.16;5157897;27;20096;-73
2022/08/18 00:48:07;;;;;;;73.25;51.67;;;;;;;19.05;90.61;101166.09;5157939;27;20096;-73
2022/08/18 00:50:55;;;;;;;68.55;48.33;;;;;;;19.08;90.65;101176.56;5158227;27;20065;-73
2022/08/18 00:53:55;;;;;;;70.00;49.00;;;;;;;19.06;90.39;101174.00;5157881;27;20063;-73
2022/08/18 00:56:44;;;;;;;72.03;52.45;;;;;;;19.05;90.78;101177.63;5155566;27;20088;-73
2022/08/18 00:59:32;;;;;;;68.85;46.05;;;;;;;19.07;90.96;101173.06;5157764;27;20122;-73
2022/08/18 01:02:05;;;;;;;70.13;51.00;;;;;;;19.06;90.88;101176.69;5157799;27;20070;-73
2022/08/18 01:04:39;;;;;;;74.15;52.38;;;;;;;19.07;91.00;101186.41;5157307;27;20067;-73
2022/08/18 01:07:28;;;;;;;76.72;51.22;;;;;;;19.08;91.22;101180.13;5157591;27;20047;-73
2022/08/18 01:10:02;;;;;;;77.10;53.08;;;;;;;19.10;91.10;101174.66;5157759;27;20074;-73
2022/08/18 01:12:29;;;;;;;83.25;54.80;;;;;;;19.10;90.90;101166.66;5158146;27;20070;-73
2022/08/18 01:15:15;;;;;;;73.82;51.53;;;;;;;19.14;91.35;101164.66;5157105;27;20046;-73
2022/08/18 01:24:06;;;;;;;75.38;53.67;;;;;;;19.03;91.03;101159.97;5157730;27;20047;-73
2022/08/18 01:26:45;;;;;;;82.90;54.30;;;;;;;18.96;90.57;101159.50;5156356;27;20126;-73
2022/08/18 01:29:12;;;;;;;78.85;53.25;;;;;;;18.92;91.00;101156.13;5156939;27;20481;-73
2022/08/18 01:31:55;;;;;;;80.22;51.55;;;;;;;18.87;91.08;101149.31;5157002;27;20063;-73
2022/08/18 01:34:27;;;;;;;79.53;53.80;;;;;;;18.80;91.19;101151.50;5157661;27;20067;-73
2022/08/18 01:36:55;;;;;;;81.90;52.00;;;;;;;18.77;91.61;101143.69;5157474;27;20039;-73
2022/08/18 01:39:23;;;;;;;82.65;54.20;;;;;;;18.78;91.88;101156.06;5157013;27;20051;-73
2022/08/18 01:42:15;;;;;;;85.38;54.40;;;;;;;18.76;91.94;101153.50;5156832;27;20039;-73
2022/08/18 01:44:47;;;;;;;80.45;53.97;;;;;;;18.76;92.07;101160.69;5157265;27;20454;-73
2022/08/18 01:47:17;;;;;;;74.25;49.67;;;;;;;18.75;92.44;101161.63;5157304;27;20055;-73
2022/08/18 01:49:44;;;;;;;84.10;53.17;;;;;;;18.78;92.44;101164.09;5156582;27;20035;-73
2022/08/18 01:52:19;;;;;;;81.78;52.38;;;;;;;18.80;92.51;101175.53;5156991;27;20515;-73
2022/08/18 01:54:48;;;;;;;82.25;55.88;;;;;;;18.83;92.77;101172.69;5157506;27;20043;-73
2022/08/18 01:57:18;;;;;;;72.35;48.58;;;;;;;18.87;93.06;101176.03;5157357;27;20493;-73
2022/08/18 01:59:45;;;;;;;81.28;52.58;;;;;;;18.89;93.09;101183.00;5157177;27;20132;-73
2022/08/18 02:02:21;;;;;;;66.97;45.75;;;;;;;18.94;93.13;101166.72;5156952;27;20102;-73
2022/08/18 02:04:55;;;;;;;79.38;48.75;;;;;;;18.94;92.84;101164.06;5155959;27;20035;-73
2022/08/18 02:07:22;;;;;;;82.32;54.42;;;;;;;18.94;93.04;101166.72;5156418;27;20051;-73
2022/08/18 02:10:00;;;;;;;78.50;51.40;;;;;;;18.96;92.80;101180.00;5156624;27;20530;-73
2022/08/18 02:12:28;;;;;;;76.45;49.33;;;;;;;18.99;93.31;101174.47;5156327;27;20496;-73
2022/08/18 02:14:55;;;;;;;84.18;51.60;;;;;;;18.99;93.12;101174.47;5156487;27;21013;-74
2022/08/18 02:17:22;;;;;;;74.13;50.85;;;;;;;18.97;93.26;101171.91;5155898;27;20135;-73
2022/08/18 02:19:50;;;;;;;66.38;44.92;;;;;;;18.98;92.98;101173.63;5156231;27;20043;-74
2022/08/18 02:22:19;;;;;;;70.65;46.53;;;;;;;18.96;93.36;101166.66;5156117;27;20130;-74
2022/08/18 02:24:46;;;;;;;66.15;44.30;;;;;;;18.98;93.29;101180.75;5138203;27;20512;-73
2022/08/18 02:27:14;;;;;;;67.20;43.88;;;;;;;19.00;93.54;101174.38;5156626;27;20035;-74
2022/08/18 02:29:42;;;;;;;69.60;43.33;;;;;;;19.01;93.32;101175.22;5156222;27;20043;-74
2022/08/18 02:32:09;;;;;;;65.70;42.58;;;;;;;19.03;93.56;101184.03;5156435;27;20082;-74
2022/08/18 02:34:36;;;;;;;72.80;47.85;;;;;;;19.01;93.18;101178.78;5156207;27;20040;-74
2022/08/18 02:37:04;;;;;;;63.80;40.63;;;;;;;19.03;93.60;101189.38;5155233;27;20652;-73
2022/08/18 02:39:36;;;;;;;59.97;40.50;;;;;;;19.03;93.36;101192.88;5156173;27;20051;-74
2022/08/18 02:42:06;;;;;;;61.58;38.22;;;;;;;19.02;93.35;101191.19;5156099;27;20047;-74
2022/08/18 02:44:34;;;;;;;58.65;38.70;;;;;;;19.01;93.05;101192.13;5155739;27;20043;-74
2022/08/18 02:47:01;;;;;;;57.17;36.83;;;;;;;18.99;93.09;101186.03;5155973;27;20092;-74
2022/08/18 02:49:28;;;;;;;54.38;37.15;;;;;;;18.96;92.65;101191.53;5156084;27;20048;-74
2022/08/18 02:51:56;;;;;;;57.33;36.92;;;;;;;18.91;92.66;101198.97;5155823;27;20069;-74
2022/08/18 02:54:24;;;;;;;51.25;36.13;;;;;;;18.87;92.56;101184.91;5155440;27;20074;-74
2022/08/18 02:56:52;;;;;;;51.92;35.67;;;;;;;18.83;92.65;101187.84;5156085;27;20035;-73
2022/08/18 02:59:24;;;;;;;56.55;39.17;;;;;;;18.78;92.70;101191.66;5155395;27;20070;-73
2022/08/18 03:01:55;;;;;;;51.42;36.42;;;;;;;18.77;93.05;101194.44;5155911;27;20536;-73
2022/08/18 03:04:29;;;;;;;52.08;34.33;;;;;;;18.75;93.25;101205.19;5155350;27;20466;-73
2022/08/18 03:07:01;;;;;;;47.90;34.20;;;;;;;18.75;93.19;101205.19;5155966;27;20047;-74
2022/08/18 03:09:31;;;;;;;47.38;34.08;;;;;;;18.73;93.00;101200.91;5155732;27;20039;-74
2022/08/18 03:11:59;;;;;;;53.88;34.83;;;;;;;18.72;92.90;101194.69;5155697;27;20063;-73
2022/08/18 03:14:26;;;;;;;49.63;35.42;;;;;;;18.72;93.03;101196.50;5155340;27;20514;-74
2022/08/18 03:16:54;;;;;;;46.28;34.00;;;;;;;18.73;92.95;101195.56;5154885;27;20055;-74
2022/08/18 03:19:27;;;;;;;44.95;33.33;;;;;;;18.71;92.93;101189.44;5155771;27;20039;-74
2022/08/18 03:21:58;;;;;;;46.28;32.75;;;;;;;18.71;92.97;101184.09;5155677;27;20067;-74
2022/08/18 03:24:31;;;;;;;;;;;;;;;18.68;93.19;101189.63;5155422;27;20043;-74
2022/08/18 03:27:04;;;;;;;44.65;32.53;;;;;;;18.69;93.22;101183.31;5155949;27;19949;-74
2022/08/18 03:29:34;;;;;;;40.00;31.05;;;;;;;18.68;93.14;101178.94;5155673;27;20101;-74
2022/08/18 03:32:04;;;;;;;41.08;30.88;;;;;;;18.67;92.97;101172.75;5155659;27;20580;-74
2022/08/18 03:34:32;;;;;;;43.20;31.83;;;;;;;18.66;92.87;101176.38;5155627;27;20065;-74
2022/08/18 03:36:59;;;;;;;43.17;31.40;;;;;;;18.65;93.17;101181.81;5153717;27;20066;-74
2022/08/18 03:39:27;;;;;;;41.58;30.38;;;;;;;18.66;93.16;101186.19;5155584;27;20062;-74
2022/08/18 03:41:56;;;;;;;42.13;30.38;;;;;;;18.65;92.67;101173.81;5155356;27;20505;-74
2022/08/18 03:44:37;;;;;;;39.10;30.75;;;;;;;18.61;92.42;101181.97;5155251;27;20114;-74
2022/08/18 03:47:10;;;;;;;40.50;29.88;;;;;;;18.60;92.79;101182.94;5155361;27;20400;-74
2022/08/18 03:49:38;;;;;;;41.72;29.75;;;;;;;18.61;92.64;101183.81;5157147;27;20496;-74
2022/08/18 03:52:09;;;;;;;36.60;27.65;;;;;;;18.63;92.86;101184.56;5159005;27;20088;-74
2022/08/18 03:54:38;;;;;;;39.95;29.73;;;;;;;18.64;92.54;101186.28;5158775;27;20045;-74
2022/08/18 03:57:10;;;;;;;37.08;28.45;;;;;;;18.64;92.04;101183.59;5159053;27;20038;-74
2022/08/18 03:59:42;;;;;;;36.60;28.38;;;;;;;18.64;92.13;101194.28;5158101;27;20127;-73
2022/08/18 04:02:10;;;;;;;37.03;26.70;;;;;;;18.65;91.86;101192.50;5158562;27;20054;-74
2022/08/18 04:04:37;;;;;;;35.17;28.02;;;;;;;18.62;91.96;101190.84;5158870;27;20539;-73
2022/08/18 04:07:13;;;;;;;36.03;24.98;;;;;;;18.63;91.42;101190.75;5158633;27;20066;-74
2022/08/18 04:09:41;;;;;;;34.45;25.90;;;;;;;18.62;91.35;101188.16;5158544;27;20513;-74
2022/08/18 04:12:14;;;;;;;35.20;26.48;;;;;;;18.60;91.32;101184.75;5159004;27;20078;-73
2022/08/18 04:14:48;;;;;;;29.52;24.17;;;;;;;18.58;91.28;101176.81;5157788;27;20043;-75
2022/08/18 04:17:23;;;;;;;27.77;21.40;;;;;;;18.59;90.61;101181.22;5157994;27;20053;-74
2022/08/18 04:19:54;;;;;;;25.13;20.20;;;;;;;18.55;90.15;101174.34;5158383;27;20054;-74
2022/08/18 04:22:23;;;;;;;29.45;22.80;;;;;;;18.56;90.58;101172.53;5157882;27;20359;-74
2022/08/18 04:24:52;;;;;;;27.38;21.95;;;;;;;18.57;90.32;101177.75;5158423;27;20051;-73
2022/08/18 04:27:21;;;;;;;23.73;20.15;;;;;;;18.57;89.63;101172.41;5158410;27;20075;-74
2022/08/18 04:29:48;;;;;;;25.65;21.45;;;;;;;18.54;90.24;101169.94;5158340;27;20173;-74
2022/08/18 04:32:15;;;;;;;22.45;19.35;;;;;;;18.50;89.63;101176.41;5157835;27;20039;-73
2022/08/18 04:34:43;;;;;;;24.92;20.45;;;;;;;18.43;89.80;101183.06;5158629;27;20043;-73
2022/08/18 04:37:10;;;;;;;27.20;21.92;;;;;;;18.38;90.16;101188.66;5158155;27;20118;-74
2022/08/18 04:39:38;;;;;;;28.40;20.88;;;;;;;18.38;90.39;101193.13;5158058;27;20109;-74
2022/08/18 04:42:05;;;;;;;24.08;18.65;;;;;;;18.36;90.57;101189.72;5157975;27;20062;-73
2022/08/18 04:44:36;;;;;;;27.10;18.52;;;;;;;18.37;90.34;101191.41;5157507;27;20100;-73
2022/08/18 04:47:07;;;;;;;22.40;18.13;;;;;;;18.42;90.42;101202.69;5139774;27;20051;-74
2022/08/18 04:49:36;;;;;;;27.38;17.85;;;;;;;18.45;89.96;101207.88;5157913;27;20043;-73
2022/08/18 04:55:08;;;;;;;23.05;17.15;;;;;;;18.52;89.58;101208.38;5157080;27;20039;-74
2022/08/18 04:57:36;;;;;;;20.30;17.52;;;;;;;18.56;89.13;101212.56;5158180;27;20471;-73
2022/08/18 05:00:05;;;;;;;26.02;18.75;;;;;;;18.59;88.82;101223.06;5157552;27;20043;-74
2022/08/18 05:02:33;;;;;;;26.65;18.77;;;;;;;18.61;89.38;101222.03;5157778;27;20461;-74
2022/08/18 05:05:02;;;;;;;23.48;17.77;;;;;;;18.65;89.19;101221.84;5157340;27;20043;-75
2022/08/18 05:07:31;;;;;;;23.77;17.92;;;;;;;18.66;88.71;101220.91;5157631;27;20537;-73
2022/08/18 05:09:58;;;;;;;27.00;18.67;;;;;;;18.63;88.67;101214.78;5157797;27;20082;-74
2022/08/18 05:12:25;;;;;;;21.73;18.52;;;;;;;18.62;88.59;101215.75;5157900;27;20039;-73
2022/08/18 05:14:55;;;;;;;27.33;19.15;;;;;;;18.61;88.72;101222.03;5156910;27;20132;-73
2022/08/18 05:17:27;;;;;;;24.63;18.75;;;;;;;18.63;89.08;101224.59;5156862;27;20055;-73
2022/08/18 05:19:59;;;;;;;26.10;19.53;;;;;;;18.66;89.26;101219.09;5157684;27;20043;-73
2022/08/18 05:22:29;;;;;;;23.10;16.77;;;;;;;18.70;89.47;101228.66;5157501;27;20035;-74
2022/08/18 05:24:59;;;;;;;22.48;16.55;;;;;;;18.73;88.57;101231.13;5156864;27;20039;-73
2022/08/18 05:27:35;;;;;;;22.42;17.65;;;;;;;18.73;87.98;101227.59;5157328;27;20072;-74
2022/08/18 05:30:06;;;;;;;23.42;18.35;;;;;;;18.71;88.11;101224.16;5157447;27;20071;-74
2022/08/18 05:32:39;;;;;;;22.73;18.30;;;;;;;18.73;88.02;101220.44;5157266;27;20506;-73
2022/08/18 05:35:29;;;;;;;30.13;18.15;;;;;;;18.79;88.13;101221.91;5157390;27;20527;-73
2022/08/18 05:38:40;;;;;;;22.45;18.58;;;;;;;18.86;87.83;101225.06;5157295;27;20500;-73
2022/08/18 05:41:18;;;;;;;27.40;18.98;;;;;;;18.89;88.10;101222.22;5157749;27;20049;-73
2022/08/18 05:43:47;;;;;;;30.50;18.63;;;;;;;18.95;88.30;101221.03;5157393;27;20044;-74
2022/08/18 05:46:29;;;;;;;19.73;16.60;;;;;;;19.03;88.19;101224.09;5156859;27;20059;-73
2022/08/18 05:48:56;;;;;;;22.67;17.45;;;;;;;19.07;87.78;101220.31;5157053;27;20565;-74
2022/08/18 05:51:38;;;;;;;25.30;18.98;;;;;;;19.11;87.44;101220.97;5156478;27;20035;-74
2022/08/18 05:57:00;;;;;;;22.63;17.55;;;;;;;19.19;87.36;101230.22;5156838;27;20043;-73
2022/08/18 05:59:34;;;;;;;23.77;18.27;;;;;;;19.23;87.51;101230.88;5156689;27;20045;-73
2022/08/18 06:02:37;;;;;;;24.67;19.25;;;;;;;19.27;87.47;101228.91;5156990;27;20149;-73
2022/08/18 06:05:14;;;;;;;21.88;18.23;;;;;;;19.29;87.93;101241.22;5151349;27;20061;-73
2022/08/18 06:08:08;;;;;;;21.98;16.45;;;;;;;19.35;87.33;101246.19;5156531;27;20506;-73
2022/08/18 06:10:41;;;;;;;24.13;18.38;;;;;;;19.36;86.93;101247.06;5156780;27;20122;-73
2022/08/18 06:13:10;;;;;;;27.92;20.08;;;;;;;19.37;87.24;101238.94;5155750;27;20131;-73
2022/08/18 06:16:02;;;;;;;27.27;20.17;;;;;;;19.40;87.17;101241.44;5156560;27;20449;-74
2022/08/18 06:18:45;;;;;;;25.45;20.73;;;;;;;19.45;87.39;101246.50;5155811;27;20055;-73
2022/08/18 06:21:38;;;;;;;24.48;20.73;;;;;;;19.52;87.82;101258.53;5156767;27;20442;-73
2022/08/18 06:24:26;;;;;;;29.10;22.60;;;;;;;19.62;87.07;101255.28;5155994;27;20092;-73
2022/08/18 06:27:03;;;;;;;29.00;21.92;;;;;;;19.67;86.29;101255.88;5156384;27;20032;-73
2022/08/18 06:29:53;;;;;;;31.33;24.17;;;;;;;19.68;85.90;101262.94;5156340;27;20036;-73
2022/08/18 06:32:58;;;;;;;43.75;28.20;;;;;;;19.74;85.86;101264.38;5156353;27;20047;-73
2022/08/18 06:35:36;;;;;;;;;;;;;;;19.75;85.51;101258.91;5156479;27;20039;-74
2022/08/18 06:38:55;;;;;;;31.52;24.77;;;;;;;19.89;84.99;101266.09;5156357;27;20080;-73
2022/08/18 06:41:37;;;;;;;38.55;25.65;;;;;;;20.04;83.96;101266.94;5144958;27;20558;-74
2022/08/18 06:44:37;;;;;;;38.65;25.10;;;;;;;20.19;82.97;101264.25;5137323;27;20039;-73
2022/08/18 06:47:20;;;;;;;31.48;24.08;;;;;;;20.20;82.53;101261.47;5156255;27;20043;-73
2022/08/18 06:50:12;;;;;;;31.35;25.08;;;;;;;20.10;82.83;101263.03;5156309;27;20105;-73
2022/08/18 06:52:53;;;;;;;30.92;23.48;;;;;;;19.99;83.23;101255.69;5156096;27;20087;-74
2022/08/18 06:55:38;;;;;;;31.48;24.67;;;;;;;19.94;83.80;101265.81;5155693;27;20119;-73
2022/08/18 06:58:29;;;;;;;32.92;25.25;;;;;;;20.01;83.94;101261.78;5156008;27;20043;-73
2022/08/18 07:01:06;;;;;;;37.20;24.75;;;;;;;20.12;84.01;101263.78;5155818;27;20092;-73
2022/08/18 07:03:33;;;;;;;31.58;23.30;;;;;;;20.15;84.27;101258.22;5155999;27;20039;-73
2022/08/18 07:06:20;;;;;;;31.92;23.67;;;;;;;20.24;83.96;101256.78;5155557;27;20059;-73
2022/08/18 07:08:53;;;;;;;27.33;20.58;;;;;;;20.40;83.32;101257.50;5156019;27;20067;-73
2022/08/18 07:11:28;;;;;;;23.23;17.50;;;;;;;20.69;83.07;101268.13;5155913;27;20053;-73
2022/08/18 07:14:20;;;;;;;19.83;16.88;;;;;;;20.77;80.97;101267.63;5155713;27;20039;-73
2022/08/18 07:16:48;;;;;;;23.88;17.52;;;;;;;20.79;81.46;101277.31;5155148;27;20130;-73
2022/08/18 07:19:30;;;;;;;20.45;15.38;;;;;;;20.87;80.87;101275.91;5155936;27;20050;-73
2022/08/18 07:22:10;;;;;;;17.98;14.15;;;;;;;20.88;80.47;101274.97;5155672;27;20051;-74
2022/08/18 07:24:53;;;;;;;18.45;14.00;;;;;;;20.89;80.33;101272.16;5139346;27;20089;-73
2022/08/18 07:27:48;;;;;;;22.90;14.68;;;;;;;20.82;80.07;101268.19;5159637;27;20084;-74
2022/08/18 07:30:18;;;;;;;19.00;14.50;;;;;;;20.78;79.90;101280.94;5158707;27;20092;-74
2022/08/18 07:33:21;;;;;;;19.38;15.63;;;;;;;20.89;80.00;101282.88;5141023;27;20044;-73
2022/08/18 07:35:57;;;;;;;16.75;13.10;;;;;;;20.89;80.12;101274.00;5155610;27;20075;-74
2022/08/18 07:38:53;;;;;;;13.75;9.70;;;;;;;20.91;78.08;101280.09;5158889;27;20119;-73
2022/08/18 07:41:34;;;;;;;16.50;10.82;;;;;;;20.98;79.00;101278.75;5159291;27;20070;-73
2022/08/18 07:44:38;;;;;;;14.80;9.10;;;;;;;21.08;79.13;101284.31;5159136;27;20123;-73
2022/08/18 07:47:48;;;;;;;11.02;7.88;;;;;;;21.25;77.33;101283.16;5159126;27;20122;-73
2022/08/18 07:50:16;;;;;;;9.02;6.60;;;;;;;21.40;75.85;101282.13;5159065;27;20040;-73
2022/08/18 07:53:34;;;;;;;11.43;7.35;;;;;;;21.72;74.41;101287.06;5158391;27;20035;-73
2022/08/18 07:56:22;;;;;;;12.02;7.32;;;;;;;22.09;75.78;101288.09;5146142;27;20058;-72
2022/08/18 07:59:06;;;;;;;19.80;10.55;;;;;;;22.53;75.19;101283.16;5159034;27;20043;-73
2022/08/18 08:01:54;;;;;;;21.20;10.68;;;;;;;22.85;72.31;101266.47;5158466;27;20538;-72
2022/08/18 08:05:05;;;;;;;19.45;10.30;;;;;;;22.85;71.53;101266.47;5158855;27;20050;-73
2022/08/18 08:07:58;;;;;;;23.30;9.90;;;;;;;22.87;71.81;101261.84;5158994;27;20143;-73
2022/08/18 08:10:43;;;;;;;15.07;8.93;;;;;;;22.86;71.30;101265.50;5158403;27;20067;-73
2022/08/18 08:13:31;;;;;;;12.55;8.25;;;;;;;22.94;70.60;101271.97;5157838;27;20436;-73
2022/08/18 08:16:58;;;;;;;12.02;8.43;;;;;;;23.01;69.97;101268.84;5158412;27;20050;-74
2022/08/18 08:19:54;;;;;;;21.10;8.40;;;;;;;22.87;69.61;101268.06;5157139;27;20046;-73
2022/08/18 08:23:08;;;;;;;12.52;8.65;;;;;;;22.70;70.82;101277.38;5157273;27;20065;-73
2022/08/18 08:26:14;;;;;;;20.30;8.70;;;;;;;22.62;71.04;101274.41;5156965;27;20119;-74
2022/08/18 08:29:05;;;;;;;13.20;8.80;;;;;;;22.57;71.34;101287.34;5157146;27;20054;-73
2022/08/18 08:31:48;;;;;;;12.45;8.10;;;;;;;22.57;71.15;101287.34;5157450;27;20036;-73
2022/08/18 08:34:28;;;;;;;11.93;8.43;;;;;;;22.49;71.02;101283.38;5156880;27;20044;-73
2022/08/18 08:37:04;;;;;;;11.65;8.13;;;;;;;22.46;71.58;101288.13;5156848;27;20138;-73
2022/08/18 08:39:41;;;;;;;10.23;7.30;;;;;;;22.37;71.40;101278.03;5156767;27;20047;-73
2022/08/18 08:42:25;;;;;;;12.15;7.53;;;;;;;22.27;71.82;101291.28;5156664;27;20079;-73
2022/08/18 08:45:07;;;;;;;13.70;8.40;;;;;;;22.23;72.06;101279.06;5156847;27;20488;-72
2022/08/18 08:48:05;;;;;;;11.32;8.25;;;;;;;22.26;72.28;101286.88;5156922;27;20071;-73
2022/08/18 08:50:56;;;;;;;10.27;7.75;;;;;;;22.33;72.54;101283.63;5156185;27;20044;-73
2022/08/18 08:53:44;;;;;;;11.00;8.55;;;;;;;22.50;71.28;101289.63;5156933;27;20047;-73
2022/08/18 08:56:15;;;;;;;11.68;8.13;;;;;;;22.59;71.52;101298.81;5156289;27;20070;-74
2022/08/18 08:58:57;;;;;;;18.23;8.40;;;;;;;22.91;71.79;101301.81;5156380;27;20070;-73
2022/08/18 09:01:57;;;;;;;11.32;7.10;;;;;;;23.15;71.60;101303.56;5156390;27;20447;-73
2022/08/18 09:04:53;;;;;;;17.90;7.03;;;;;;;23.25;69.61;101303.78;5156468;27;20505;-73
2022/08/18 09:08:01;;;;;;;9.63;5.80;;;;;;;23.27;68.83;101293.75;5156555;27;20039;-73
2022/08/18 09:11:33;;;;;;;8.52;5.80;;;;;;;23.30;67.52;101298.88;5156142;27;20126;-73
2022/08/18 09:14:29;;;;;;;11.57;6.78;;;;;;;23.32;67.51;101296.94;5112481;28;20048;-73
2022/08/18 09:17:30;;;;;;;13.70;6.23;;;;;;;23.36;67.40;101297.56;5074264;28;1062918;-73
2022/08/18 09:20:39;;;;;;;7.43;5.57;;;;;;;23.44;67.16;101296.97;5156766;27;20043;-73
2022/08/18 09:23:42;;;;;;;11.52;5.90;;;;;;;23.42;67.33;101305.16;5157595;27;20031;-73
2022/08/18 09:26:38;;;;;;;12.00;5.70;;;;;;;23.37;67.31;101299.28;5157220;27;20057;-73
2022/08/18 09:29:17;;;;;;;7.90;5.47;;;;;;;23.31;66.09;101297.91;5157175;27;20035;-73
2022/08/18 09:31:45;;;;;;;8.18;5.47;;;;;;;23.16;67.44;101299.91;5156926;27;20543;-73
2022/08/18 09:34:46;;;;;;;9.95;5.53;;;;;;;23.20;67.27;101303.25;5157253;27;20035;-73
2022/08/18 09:37:40;;;;;;;11.43;5.88;;;;;;;23.27;67.77;101297.28;5157136;27;20096;-73
2022/08/18 09:43:38;;;;;;;12.20;6.93;;;;;;;23.57;66.03;101292.34;5157068;27;20522;-75
2022/08/18 09:46:07;;;;;;;8.40;6.05;;;;;;;23.57;66.32;101297.72;5155906;27;20131;-73
2022/08/18 09:48:40;;;;;;;7.07;6.30;;;;;;;23.58;65.46;101289.53;5157169;27;20040;-73
2022/08/18 09:51:14;;;;;;;6.57;5.60;;;;;;;23.62;66.06;101289.28;5157254;27;20497;-74
2022/08/18 09:53:46;;;;;;;12.68;5.82;;;;;;;23.71;66.09;101296.63;5156821;27;20039;-73
2022/08/18 09:56:37;;;;;;;8.77;5.78;;;;;;;23.83;65.95;101287.59;5156827;27;20075;-73
2022/08/18 10:00:17;;;;;;;7.68;5.75;;;;;;;24.21;65.47;101290.91;5156146;27;20147;-73
2022/08/18 10:02:47;;;;;;;6.47;5.20;;;;;;;24.50;64.55;101288.50;5155681;27;20516;-74
2022/08/18 10:05:16;;;;;;;6.85;5.10;;;;;;;24.62;63.58;101297.41;5156925;27;20101;-73
2022/08/18 10:08:02;;;;;;;10.38;6.07;;;;;;;24.63;63.45;101306.34;5156722;27;20508;-73
2022/08/18 10:10:54;;;;;;;8.25;5.90;;;;;;;24.57;64.07;101299.63;5156342;27;20523;-73
2022/08/18 10:14:19;;;;;;;7.85;5.70;;;;;;;24.50;63.56;101299.28;5156745;27;20498;-73
2022/08/18 10:17:34;;;;;;;7.03;5.53;;;;;;;24.46;64.04;101286.19;5155861;27;20036;-74
2022/08/18 10:20:29;;;;;;;9.32;5.55;;;;;;;24.48;62.87;101289.63;5156015;27;20120;-74
2022/08/18 10:22:56;;;;;;;6.43;5.68;;;;;;;24.56;61.78;101279.06;5156430;27;20047;-74
2022/08/18 10:25:38;;;;;;;9.07;5.95;;;;;;;24.67;60.99;101280.88;5156452;27;20039;-74
2022/08/18 10:29:04;;;;;;;8.50;5.10;;;;;;;24.65;61.50;101280.13;5156664;27;20446;-74
2022/08/18 10:31:54;;;;;;;7.80;5.30;;;;;;;24.64;62.43;101271.19;5071523;28;20045;-73
2022/08/18 10:34:47;;;;;;;8.10;6.07;;;;;;;24.71;62.66;101270.72;5154750;27;20104;-73
2022/08/18 10:37:36;;;;;;;8.45;5.65;;;;;;;24.76;63.07;101274.75;5156193;27;20100;-73
2022/08/18 10:40:11;;;;;;;8.88;5.00;;;;;;;24.77;62.03;101281.84;5155729;27;20510;-74
2022/08/18 10:42:49;;;;;;;6.68;4.63;;;;;;;24.73;61.52;101282.19;5156031;27;20404;-74
2022/08/18 10:45:45;;;;;;;9.82;5.80;;;;;;;24.63;61.83;101274.84;5155993;27;20043;-73
2022/08/18 10:48:33;;;;;;;8.85;5.28;;;;;;;24.54;61.94;101274.78;5155559;27;20043;-73
2022/08/18 10:51:30;;;;;;;6.32;5.05;;;;;;;24.47;62.00;101272.56;5156265;27;20042;-73
2022/08/18 10:54:59;;;;;;;11.07;5.60;;;;;;;24.43;62.71;101284.59;5156061;27;20507;-74
2022/08/18 10:57:54;;;;;;;6.93;5.05;;;;;;;24.45;62.42;101287.16;5155147;27;20508;-73
2022/08/18 11:00:59;;;;;;;8.70;5.70;;;;;;;24.45;62.87;101287.16;5155764;27;20443;-73
2022/08/18 11:04:00;;;;;;;8.23;5.20;;;;;;;24.46;62.62;101287.06;5155651;27;20043;-73
2022/08/18 11:06:47;;;;;;;5.18;4.50;;;;;;;24.46;61.60;101287.06;5156112;27;20038;-73
2022/08/18 11:09:26;;;;;;;7.40;4.70;;;;;;;24.40;61.14;101281.31;5155759;27;20063;-74
2022/08/18 11:11:59;;;;;;;7.30;5.30;;;;;;;24.33;61.74;101283.66;5155698;27;20043;-74
2022/08/18 11:14:59;;;;;;;;;;;;;;;24.31;61.85;101280.22;5155967;27;20513;-74
2022/08/18 11:17:51;;;;;;;9.63;5.95;;;;;;;24.36;61.91;101288.81;5155578;27;19966;-73
2022/08/18 11:20:22;;;;;;;8.02;6.05;;;;;;;24.46;61.25;101276.28;5155745;27;20047;-73
2022/08/18 11:22:56;;;;;;;10.03;7.30;;;;;;;24.55;60.99;101265.72;5155609;27;20203;-73
2022/08/18 11:25:31;;;;;;;7.50;6.70;;;;;;;24.86;60.35;101253.22;5155520;27;20044;-74
2022/08/18 11:28:00;;;;;;;10.82;6.88;;;;;;;25.23;59.69;101255.47;5155169;27;20048;-74
2022/08/18 11:30:36;;;;;;;9.38;5.82;;;;;;;25.14;59.54;101245.47;5155833;27;20106;-74
2022/08/18 11:33:06;;;;;;;6.82;6.13;;;;;;;25.14;59.44;101250.03;5155460;27;20045;-73
2022/08/18 11:35:47;;;;;;;8.55;5.90;;;;;;;25.08;58.77;101244.16;5155750;27;20496;-74
2022/08/18 11:38:18;;;;;;;9.20;6.10;;;;;;;24.99;59.56;101238.72;5154981;27;20125;-74
2022/08/18 11:41:12;;;;;;;8.45;6.30;;;;;;;24.89;59.49;101238.63;5154495;27;20497;-74
2022/08/18 11:43:45;;;;;;;8.05;6.15;;;;;;;24.78;60.20;101240.41;5155618;27;20108;-74
2022/08/18 11:46:19;;;;;;;7.45;6.70;;;;;;;24.73;59.92;101239.94;5154922;27;20043;-74
2022/08/18 11:48:54;;;;;;;8.02;5.93;;;;;;;24.66;60.22;101236.03;5155327;27;20046;-73
2022/08/18 11:51:27;;;;;;;6.40;5.25;;;;;;;24.64;60.63;101238.84;5155459;27;20054;-74
2022/08/18 11:54:00;;;;;;;10.40;6.13;;;;;;;24.74;61.02;101230.00;5155071;27;20058;-73
2022/08/18 11:56:30;;;;;;;6.67;5.50;;;;;;;24.86;60.91;101230.81;5154959;27;20088;-74
2022/08/18 11:59:34;;;;;;;7.82;5.05;;;;;;;24.88;60.11;101228.81;5154934;27;20385;-74
2022/08/18 12:02:24;;;;;;;7.72;5.25;;;;;;;24.78;60.46;101223.38;5155196;27;20047;-74
2022/08/18 12:05:01;;;;;;;10.23;5.55;;;;;;;24.78;60.05;101223.38;5154911;27;20386;-74
2022/08/18 12:07:41;;;;;;;7.07;5.32;;;;;;;25.03;58.02;101215.91;5155155;27;20471;-74
2022/08/18 12:10:27;;;;;;;6.80;4.78;;;;;;;25.18;57.75;101217.25;5156678;27;20039;-73
2022/08/18 12:12:59;;;;;;;7.68;4.15;;;;;;;25.38;57.35;101223.63;5158499;27;20063;-74
2022/08/18 12:15:33;;;;;;;9.10;4.90;;;;;;;25.65;56.66;101221.34;5157951;27;20047;-74
2022/08/18 12:18:16;;;;;;;8.40;5.97;;;;;;;25.89;55.38;101221.00;5158452;27;20055;-74
2022/08/18 12:21:05;;;;;;;12.55;6.15;;;;;;;26.03;55.98;101223.31;5158245;27;20050;-74
2022/08/18 12:23:35;;;;;;;6.78;5.55;;;;;;;26.24;55.81;101219.69;5158639;27;20046;-74
2022/08/18 12:26:16;;;;;;;11.82;5.57;;;;;;;26.46;55.38;101215.84;5158517;27;20092;-74
2022/08/18 12:29:03;;;;;;;5.53;4.88;;;;;;;26.69;54.25;101207.47;5158858;27;20492;-74